Time;durP1;ratioP1;P1;durP2;ratioP2;P2;SDS_P1;SDS_P2;PMS_P1;PMS_P2;Temp;Humidity;BMP_temperature;BMP_pressure;BME280_temperature;BME280_humidity;BME280_pressure;Samples;Min_cycle;Max_cycle;Signal;HPM_P1;HPM_P2
2023/07/12 00:01:52;;;;;;;9.90;7.60;;;;;;;14.27;86.43;98772.02;137353;1277;22017;-80
2023/07/12 00:04:53;;;;;;;12.00;7.70;;;;;;;14.25;86.59;98768.36;137059;1278;22195;-81
2023/07/12 00:07:54;;;;;;;8.20;7.40;;;;;;;14.19;86.61;98758.76;136811;1278;22258;-81
2023/07/12 00:10:56;;;;;;;8.00;7.30;;;;;;;14.13;86.76;98755.46;137129;1278;22280;-81
2023/07/12 00:13:57;;;;;;;8.80;7.70;;;;;;;14.11;87.47;98756.16;137037;1276;22369;-81
2023/07/12 00:17:01;;;;;;;11.90;8.10;;;;;;;14.12;87.56;98761.41;136976;1278;22521;-82
2023/07/12 00:20:05;;;;;;;9.20;7.70;;;;;;;14.13;87.70;98758.26;136783;1278;25434;-82
2023/07/12 00:23:06;;;;;;;15.40;7.70;;;;;;;14.09;87.42;98754.60;137140;1274;22219;-81
2023/07/12 00:26:08;;;;;;;8.80;7.90;;;;;;;14.02;87.27;98742.72;137021;1274;22141;-81
2023/07/12 00:29:09;;;;;;;9.20;7.80;;;;;;;13.95;87.45;98742.92;137447;1274;22182;-81
2023/07/12 00:32:10;;;;;;;9.80;8.70;;;;;;;13.94;87.64;98738.73;137313;1274;22205;-80
2023/07/12 00:35:11;;;;;;;15.00;8.90;;;;;;;13.93;87.84;98732.61;137321;1274;24208;-81
2023/07/12 00:38:13;;;;;;;11.00;7.70;;;;;;;13.92;88.13;98728.59;137271;1274;22308;-81
2023/07/12 00:41:14;;;;;;;11.80;8.80;;;;;;;13.93;88.06;98728.06;137375;1274;22154;-81
2023/07/12 00:44:15;;;;;;;10.10;8.40;;;;;;;13.95;88.52;98725.25;137262;1274;22586;-81
2023/07/12 00:47:16;;;;;;;19.30;8.50;;;;;;;13.98;88.54;98724.72;137414;1274;22231;-82
2023/07/12 00:50:17;;;;;;;23.20;9.20;;;;;;;14.01;88.60;98720.50;137073;1274;22461;-82
2023/07/12 00:53:18;;;;;;;12.90;8.00;;;;;;;14.01;87.98;98718.23;137222;1274;22564;-81
2023/07/12 00:56:19;;;;;;;14.40;8.00;;;;;;;13.96;87.96;98711.60;137257;1274;25337;-81
2023/07/12 00:59:25;;;;;;;10.90;8.40;;;;;;;13.91;87.82;98708.65;137288;1273;22549;-81
2023/07/12 01:02:26;;;;;;;10.00;7.60;;;;;;;13.84;88.12;98709.52;137290;1274;22532;-81
2023/07/12 01:05:28;;;;;;;9.50;8.10;;;;;;;13.81;88.11;98704.27;137231;1274;22179;-81
2023/07/12 01:08:29;;;;;;;31.70;8.70;;;;;;;13.75;88.20;98702.38;137252;1274;22632;-82
2023/07/12 01:11:30;;;;;;;10.70;8.00;;;;;;;13.71;88.47;98693.83;137348;1273;22440;-82
2023/07/12 01:14:31;;;;;;;12.00;8.40;;;;;;;13.70;88.80;98697.67;137385;1274;22504;-81
2023/07/12 01:17:33;;;;;;;8.60;7.40;;;;;;;13.68;88.93;98705.20;137264;1274;22666;-81
2023/07/12 01:20:34;;;;;;;13.90;8.00;;;;;;;13.70;88.88;98702.23;137281;1273;22286;-81
2023/07/12 01:23:35;;;;;;;9.00;8.10;;;;;;;13.64;88.84;98702.06;137219;1274;22762;-81
2023/07/12 01:26:36;;;;;;;10.30;8.00;;;;;;;13.58;89.07;98706.96;137461;1274;22339;-81
2023/07/12 01:29:37;;;;;;;61.40;12.20;;;;;;;13.56;89.51;98705.58;137348;1274;22283;-82
2023/07/12 01:32:38;;;;;;;23.30;9.70;;;;;;;13.52;89.63;98699.47;137392;1270;22916;-81
2023/07/12 01:35:39;;;;;;;8.80;7.90;;;;;;;13.52;89.39;98695.80;137142;1274;22718;-81
2023/07/12 01:38:41;;;;;;;10.80;8.10;;;;;;;13.49;89.51;98688.64;137498;1274;22213;-81
2023/07/12 01:41:42;;;;;;;11.00;7.50;;;;;;;13.48;90.00;98688.46;137290;1274;23067;-82
2023/07/12 01:44:43;;;;;;;10.00;8.30;;;;;;;13.48;89.90;98683.75;137345;1274;22263;-81
2023/07/12 01:47:44;;;;;;;8.80;7.90;;;;;;;13.46;89.88;98685.50;137441;1274;22571;-82
2023/07/12 01:50:45;;;;;;;9.60;8.60;;;;;;;13.40;90.59;98679.73;137385;1269;22171;-81
2023/07/12 01:53:48;;;;;;;28.00;10.00;;;;;;;13.44;91.50;98676.41;137245;1274;22520;-81
2023/07/12 01:56:49;;;;;;;10.30;9.30;;;;;;;13.47;93.04;98669.77;137072;1274;22213;-82
2023/07/12 02:31:10;;;;;;;10.30;9.30;;;;;;;13.45;93.81;98643.90;133657;1305;545366;-82
2023/07/12 02:34:11;;;;;;;12.20;9.10;;;;;;;13.39;94.53;98640.77;135738;1288;22356;-81
2023/07/12 02:37:12;;;;;;;11.10;8.80;;;;;;;13.36;94.10;98633.79;136093;1288;23000;-80
2023/07/12 02:40:14;;;;;;;11.70;9.50;;;;;;;13.36;96.67;98639.55;136056;1287;22667;-79
2023/07/12 02:43:15;;;;;;;70.50;13.00;;;;;;;13.41;99.31;98638.84;136704;1273;152903;-81
2023/07/12 02:46:16;;;;;;;16.30;10.30;;;;;;;13.45;99.38;98638.65;136944;1273;22533;-81
2023/07/12 02:49:17;;;;;;;17.50;9.50;;;;;;;13.49;100.00;98631.83;137352;1273;22306;-82
2023/07/12 02:52:18;;;;;;;11.70;9.60;;;;;;;13.58;100.00;98623.75;136855;1273;22632;-82
2023/07/12 02:55:19;;;;;;;34.60;11.30;;;;;;;13.66;100.00;98612.17;136702;1273;22568;-82
2023/07/12 02:58:20;;;;;;;10.90;9.60;;;;;;;13.73;100.00;98608.13;137455;1273;22238;-82
2023/07/12 03:01:21;;;;;;;23.10;10.30;;;;;;;13.77;100.00;98606.17;136710;1273;22826;-82
2023/07/12 03:04:23;;;;;;;15.40;9.40;;;;;;;13.82;100.00;98600.21;136925;1266;22301;-82
2023/07/12 03:07:25;;;;;;;11.00;9.00;;;;;;;13.83;99.17;98601.26;137380;1273;22261;-82
2023/07/12 03:10:27;;;;;;;56.50;11.60;;;;;;;13.85;99.60;98602.83;136965;1273;22611;-82
2023/07/12 03:13:29;;;;;;;19.80;9.70;;;;;;;13.92;100.00;98597.39;136801;1273;22512;-82
2023/07/12 03:16:30;;;;;;;12.50;9.60;;;;;;;14.05;100.00;98596.27;136830;1273;22566;-80
2023/07/12 03:19:31;;;;;;;32.40;10.60;;;;;;;14.21;100.00;98589.34;137101;1273;22270;-83
2023/07/12 03:22:32;;;;;;;12.30;10.30;;;;;;;14.35;100.00;98581.89;137089;1273;22625;-84
2023/07/12 03:25:33;;;;;;;12.00;9.40;;;;;;;14.49;100.00;98572.36;137404;1273;22658;-81
2023/07/12 03:28:34;;;;;;;10.50;9.40;;;;;;;14.62;100.00;98571.02;136807;1273;22277;-82
2023/07/12 03:31:35;;;;;;;10.80;9.70;;;;;;;14.77;100.00;98569.69;136895;1273;22576;-80
2023/07/12 03:34:36;;;;;;;13.30;9.60;;;;;;;14.88;100.00;98565.04;137091;1273;22917;-80
2023/07/12 03:37:38;;;;;;;11.90;9.10;;;;;;;14.98;98.31;98568.61;136991;1266;22420;-81
2023/07/12 03:40:39;;;;;;;13.80;9.30;;;;;;;15.11;97.65;98565.32;136974;1273;22247;-80
2023/07/12 03:43:40;;;;;;;14.80;10.00;;;;;;;15.23;99.51;98560.63;137173;1273;22533;-79
2023/07/12 03:46:41;;;;;;;11.70;10.40;;;;;;;15.32;99.25;98564.73;136855;1274;22377;-82
2023/07/12 03:49:43;;;;;;;207.60;29.00;;;;;;;15.44;98.32;98575.29;136880;1273;22324;-82
2023/07/12 03:52:44;;;;;;;42.40;13.40;;;;;;;15.60;97.52;98582.50;137401;1273;22271;-81
2023/07/12 03:55:45;;;;;;;19.00;10.70;;;;;;;15.76;96.58;98593.02;136846;1270;22279;-82
2023/07/12 03:58:46;;;;;;;13.40;10.30;;;;;;;15.92;95.03;98595.25;136864;1273;22200;-81
2023/07/12 04:01:47;;;;;;;86.20;16.30;;;;;;;16.08;93.85;98594.88;136752;1274;22566;-80
2023/07/12 04:04:51;;;;;;;28.80;10.40;;;;;;;16.19;92.60;98591.17;136987;1273;23020;-82
2023/07/12 04:07:53;;;;;;;122.60;17.90;;;;;;;16.29;91.81;98592.63;137024;1270;22486;-83
2023/07/12 04:10:55;;;;;;;12.50;9.20;;;;;;;16.31;90.87;98592.23;136985;1273;22310;-81
2023/07/12 04:13:56;;;;;;;10.40;9.40;;;;;;;16.32;90.50;98594.15;136659;1274;22140;-81
2023/07/12 04:16:57;;;;;;;40.30;11.50;;;;;;;16.46;90.56;98595.70;137126;1273;24224;-80
2023/07/12 04:20:02;;;;;;;14.40;9.90;;;;;;;16.71;90.30;98585.85;136890;1273;22582;-81
2023/07/12 04:23:04;;;;;;;13.60;10.00;;;;;;;17.00;89.62;98588.16;136715;1273;22572;-82
2023/07/12 04:26:06;;;;;;;12.30;10.00;;;;;;;17.31;88.94;98579.33;137395;1273;22239;-81
2023/07/12 04:29:08;;;;;;;13.70;9.50;;;;;;;17.66;88.10;98570.02;137295;1273;22390;-81
2023/07/12 04:32:09;;;;;;;21.80;10.10;;;;;;;18.06;87.00;98563.02;137192;1269;22628;-80
2023/07/12 04:35:11;;;;;;;11.30;9.50;;;;;;;18.41;85.57;98554.13;137241;1274;22268;-81
2023/07/12 04:38:12;;;;;;;11.10;9.30;;;;;;;18.74;84.10;98547.17;136953;1273;22274;-79
2023/07/12 04:41:13;;;;;;;20.30;10.10;;;;;;;19.04;82.69;98540.22;137041;1274;23216;-81
2023/07/12 04:44:17;;;;;;;50.10;12.60;;;;;;;19.36;81.50;98533.68;137451;1273;22311;-83
2023/07/12 04:47:19;;;;;;;15.20;10.30;;;;;;;19.62;80.12;98526.42;137452;1273;22297;-82
2023/07/12 04:50:20;;;;;;;21.70;9.50;;;;;;;19.87;79.01;98523.21;137414;1273;22079;-81
2023/07/12 04:53:22;;;;;;;12.80;9.10;;;;;;;20.11;77.74;98526.03;137394;1274;22201;-81
2023/07/12 04:56:23;;;;;;;80.00;13.60;;;;;;;20.41;77.22;98520.45;137397;1273;22141;-85
2023/07/12 04:59:24;;;;;;;62.70;12.60;;;;;;;21.35;76.18;98517.07;137420;1266;22143;-84
2023/07/12 05:02:26;;;;;;;47.70;12.10;;;;;;;22.29;72.87;98510.98;137431;1273;22224;-85
2023/07/12 05:05:27;;;;;;;35.70;10.30;;;;;;;23.02;69.96;98507.61;137062;1273;22256;-84
2023/07/12 05:08:28;;;;;;;64.20;14.30;;;;;;;23.43;67.26;98502.96;137396;1274;22281;-83
2023/07/12 05:11:29;;;;;;;143.40;18.30;;;;;;;23.48;65.10;98501.87;137461;1273;22234;-81
2023/07/12 05:14:30;;;;;;;94.50;13.70;;;;;;;23.43;64.34;98502.42;137489;1274;22267;-82
2023/07/12 05:17:32;;;;;;;49.60;13.30;;;;;;;23.54;65.52;98501.41;137233;1274;22570;-83
2023/07/12 05:20:33;;;;;;;69.30;12.60;;;;;;;23.61;66.69;98501.64;137183;1273;22279;-83
2023/07/12 05:23:36;;;;;;;576.60;53.60;;;;;;;23.71;65.47;98500.83;137413;1273;22296;-85
2023/07/12 05:26:38;;;;;;;183.30;20.60;;;;;;;23.72;65.07;98504.67;137395;1273;22088;-82
2023/07/12 05:29:39;;;;;;;58.80;11.90;;;;;;;23.75;64.95;98505.59;137420;1274;22312;-84
2023/07/12 05:32:45;;;;;;;63.70;12.40;;;;;;;23.89;65.01;98496.62;137314;1274;22431;-82
2023/07/12 05:35:46;;;;;;;38.30;10.50;;;;;;;24.07;64.70;98494.98;137402;1273;22118;-85
2023/07/12 05:38:47;;;;;;;22.00;9.00;;;;;;;24.35;62.53;98496.70;136908;1274;22290;-83
2023/07/12 05:41:49;;;;;;;16.80;8.60;;;;;;;24.44;61.39;98496.96;137411;1274;22225;-84
2023/07/12 05:44:53;;;;;;;15.70;9.10;;;;;;;24.61;61.25;98496.64;137451;1274;23373;-77
2023/07/12 05:47:54;;;;;;;16.00;8.90;;;;;;;24.80;60.36;98495.84;137395;1274;22258;-82
2023/07/12 05:50:56;;;;;;;37.60;9.60;;;;;;;24.70;60.05;98501.70;137404;1274;22680;-83
2023/07/12 05:54:00;;;;;;;34.20;9.70;;;;;;;24.70;59.86;98513.43;137494;1273;22243;-82
2023/07/12 05:57:01;;;;;;;17.60;8.50;;;;;;;24.91;59.89;98518.98;137484;1274;22662;-83
2023/07/12 06:00:03;;;;;;;13.40;7.10;;;;;;;25.03;58.46;98517.52;137502;1274;22394;-81
2023/07/12 06:03:08;;;;;;;30.40;9.30;;;;;;;25.03;57.41;98511.27;137269;1274;22714;-82
2023/07/12 06:06:11;;;;;;;10.60;6.70;;;;;;;25.18;57.18;98504.97;137294;1274;23236;-83
2023/07/12 06:09:14;;;;;;;9.10;6.90;;;;;;;25.28;57.50;98494.48;137535;1274;22745;-83
2023/07/12 06:15:34;;;;;;;13.70;7.20;;;;;;;25.76;56.58;98506.55;137103;1274;22327;-84
2023/07/12 06:18:35;;;;;;;101.00;12.50;;;;;;;25.86;56.30;98502.00;136882;1274;22593;-82
2023/07/12 06:21:43;;;;;;;;;;;;;;;26.19;56.12;98506.98;137529;1274;22625;-83
2023/07/12 06:24:44;;;;;;;11.20;6.50;;;;;;;26.57;55.68;98497.11;137383;1274;22807;-85
2023/07/12 06:27:46;;;;;;;50.00;9.40;;;;;;;26.92;54.05;98485.61;137464;1269;22197;-82
2023/07/12 06:30:47;;;;;;;9.90;6.20;;;;;;;27.07;52.51;98476.14;137178;1274;24915;-82
2023/07/12 06:33:52;;;;;;;13.90;6.80;;;;;;;27.21;52.37;98479.40;137352;1274;22623;-81
2023/07/12 06:36:53;;;;;;;18.10;13.10;;;;;;;27.23;52.23;98481.24;137004;1274;22364;-82
2023/07/12 06:39:55;;;;;;;13.00;7.20;;;;;;;27.46;51.37;98479.64;137329;1269;22520;-83
2023/07/12 06:42:57;;;;;;;61.30;9.90;;;;;;;27.54;51.12;98480.54;137496;1274;22237;-84
2023/07/12 06:46:00;;;;;;;98.30;15.50;;;;;;;27.56;50.55;98475.92;137475;1274;22198;-84
2023/07/12 06:49:05;;;;;;;8.80;6.30;;;;;;;27.77;50.51;98464.29;137274;1274;22278;-84
2023/07/12 06:52:06;;;;;;;50.60;19.80;;;;;;;28.07;51.50;98459.84;137452;1269;22375;-81
2023/07/12 06:55:12;;;;;;;8.50;6.10;;;;;;;28.35;50.44;98458.59;137504;1273;22250;-83
2023/07/12 06:58:17;;;;;;;22.10;7.50;;;;;;;28.50;48.65;98448.61;137484;1274;22293;-80
2023/07/12 07:01:23;;;;;;;10.70;5.90;;;;;;;28.53;47.80;98445.00;137371;1263;22250;-83
2023/07/12 07:04:32;;;;;;;7.40;5.40;;;;;;;28.73;47.75;98442.95;137337;1273;22308;-84
2023/07/12 07:07:43;;;;;;;11.30;5.90;;;;;;;28.83;46.92;98441.22;137039;1274;22528;-83
2023/07/12 07:10:47;;;;;;;7.90;6.00;;;;;;;28.78;46.53;98438.14;137281;1274;22473;-83
2023/07/12 07:13:52;;;;;;;11.30;6.20;;;;;;;28.46;46.60;98422.54;137306;1274;22561;-82
2023/07/12 07:16:59;;;;;;;12.10;6.70;;;;;;;28.24;47.54;98419.92;137103;1273;22273;-84
2023/07/12 07:20:03;;;;;;;11.50;6.70;;;;;;;28.17;48.12;98404.45;137240;1273;22256;-84
2023/07/12 07:23:06;;;;;;;6.00;5.20;;;;;;;28.40;47.79;98400.60;137542;1274;22095;-83
2023/07/12 07:26:07;;;;;;;18.60;5.70;;;;;;;28.53;47.48;98402.02;137498;1274;22987;-85
2023/07/12 07:29:09;;;;;;;26.20;7.10;;;;;;;28.50;47.37;98408.52;137456;1273;22088;-84
2023/07/12 07:32:11;;;;;;;9.90;5.60;;;;;;;28.43;48.62;98408.42;137393;1273;22710;-85
2023/07/12 07:35:23;;;;;;;13.80;6.10;;;;;;;28.46;47.94;98406.63;137544;1273;22193;-84
2023/07/12 07:38:30;;;;;;;10.30;6.40;;;;;;;28.45;46.90;98407.58;137226;1274;22542;-82
2023/07/12 07:41:32;;;;;;;10.90;6.30;;;;;;;28.38;47.08;98407.70;137471;1273;22397;-84
2023/07/12 07:44:36;;;;;;;17.40;6.90;;;;;;;28.42;47.46;98405.83;137314;1274;22589;-83
2023/07/12 07:47:37;;;;;;;117.60;16.60;;;;;;;28.54;47.85;98397.52;137419;1273;22355;-85
2023/07/12 07:50:38;;;;;;;14.90;6.70;;;;;;;28.71;47.67;98397.42;137253;1273;22279;-83
2023/07/12 07:53:40;;;;;;;10.00;5.80;;;;;;;29.12;47.29;98394.21;137463;1273;22211;-82
2023/07/12 08:00:10;;;;;;;30.30;7.60;;;;;;;29.59;44.84;98385.34;137101;1251;22574;-85
2023/07/12 08:06:40;;;;;;;41.90;7.80;;;;;;;29.54;43.61;98374.27;137355;1274;22519;-83
2023/07/12 08:09:41;;;;;;;36.80;9.40;;;;;;;29.79;43.56;98378.14;137388;1273;22876;-85
2023/07/12 08:12:42;;;;;;;17.80;5.40;;;;;;;30.17;43.48;98379.24;137410;1273;22549;-80
2023/07/12 08:15:44;;;;;;;20.60;5.70;;;;;;;30.45;41.87;98377.30;137404;1274;22235;-82
2023/07/12 08:18:45;;;;;;;10.40;5.20;;;;;;;30.59;41.01;98376.61;137008;1273;22257;-80
2023/07/12 08:21:47;;;;;;;30.60;6.80;;;;;;;30.61;38.96;98373.95;137455;1273;23069;-81
2023/07/12 08:24:48;;;;;;;14.20;5.80;;;;;;;30.47;38.16;98381.98;137379;1274;22633;-81
2023/07/12 08:27:49;;;;;;;29.70;7.70;;;;;;;30.28;38.42;98377.33;137423;1274;22231;-82
2023/07/12 08:30:51;;;;;;;12.20;5.70;;;;;;;30.26;38.50;98372.65;137418;1274;22313;-83
2023/07/12 08:33:54;;;;;;;13.80;5.60;;;;;;;30.30;38.42;98366.81;137482;1274;22757;-80
2023/07/12 08:36:56;;;;;;;15.50;5.60;;;;;;;30.33;37.79;98365.98;137469;1273;22235;-79
2023/07/12 08:39:57;;;;;;;17.70;5.70;;;;;;;30.48;37.89;98362.05;137449;1263;22241;-78
2023/07/12 08:42:59;;;;;;;14.40;4.90;;;;;;;30.62;37.67;98360.76;137479;1273;22200;-82
2023/07/12 08:46:00;;;;;;;11.10;5.30;;;;;;;30.65;37.87;98361.64;137433;1273;22776;-80
2023/07/12 08:49:02;;;;;;;10.40;5.30;;;;;;;30.69;37.81;98368.13;137253;1265;22966;-84
2023/07/12 08:52:05;;;;;;;16.70;5.90;;;;;;;30.85;37.41;98368.69;137330;1266;23032;-83
2023/07/12 08:55:06;;;;;;;8.30;5.10;;;;;;;31.02;37.36;98365.50;137354;1273;22143;-83
2023/07/12 08:58:07;;;;;;;11.10;5.40;;;;;;;31.28;37.19;98353.45;137414;1273;22232;-83
2023/07/12 09:01:09;;;;;;;62.90;36.70;;;;;;;31.40;36.61;98351.91;137255;1273;22459;-82
2023/07/12 09:04:11;;;;;;;20.00;6.10;;;;;;;31.54;36.66;98344.16;137390;1273;22307;-83
2023/07/12 09:07:12;;;;;;;39.70;8.50;;;;;;;31.59;35.74;98343.00;137478;1273;22586;-84
2023/07/12 09:10:13;;;;;;;9.60;5.50;;;;;;;31.70;36.56;98337.83;137153;1274;22562;-83
2023/07/12 09:13:14;;;;;;;8.10;5.10;;;;;;;31.94;36.50;98324.99;137393;1274;22421;-82
2023/07/12 09:16:16;;;;;;;35.30;7.20;;;;;;;32.18;35.97;98319.95;137223;1273;22541;-83
2023/07/12 09:19:17;;;;;;;10.60;5.90;;;;;;;32.32;36.16;98312.86;137035;1274;22287;-80
2023/07/12 09:22:18;;;;;;;10.30;5.40;;;;;;;32.54;35.58;98312.36;137060;1274;22183;-80
2023/07/12 09:25:19;;;;;;;34.30;7.40;;;;;;;32.71;35.59;98312.51;137341;1274;22728;-80
2023/07/12 09:28:20;;;;;;;10.10;6.00;;;;;;;32.94;35.31;98306.80;137467;1274;22105;-80
2023/07/12 09:31:21;;;;;;;34.20;7.00;;;;;;;32.52;34.29;98307.70;137538;1274;22303;-81
2023/07/12 09:34:23;;;;;;;22.30;6.90;;;;;;;31.73;35.61;98312.03;137565;1273;22214;-82
2023/07/12 09:37:24;;;;;;;11.90;6.30;;;;;;;31.56;36.30;98315.15;137494;1274;22088;-80
2023/07/12 09:40:27;;;;;;;20.70;7.00;;;;;;;31.60;36.45;98312.34;137439;1273;22218;-80
2023/07/12 09:43:28;;;;;;;12.80;6.80;;;;;;;31.66;36.46;98304.09;137501;1274;22341;-83
2023/07/12 09:46:29;;;;;;;10.80;5.90;;;;;;;31.58;36.79;98303.33;137530;1274;22323;-83
2023/07/12 09:49:30;;;;;;;11.30;6.60;;;;;;;31.60;36.67;98294.20;136897;1274;22303;-82
2023/07/12 09:52:31;;;;;;;150.60;15.70;;;;;;;31.50;36.72;98296.79;137542;1272;22179;-85
2023/07/12 09:55:35;;;;;;;14.40;6.50;;;;;;;31.49;36.95;98299.40;137344;1274;22507;-82
2023/07/12 09:58:36;;;;;;;24.20;8.10;;;;;;;31.88;36.97;98298.33;136917;1274;22302;-81
2023/07/12 10:01:44;;;;;;;21.20;8.60;;;;;;;32.33;36.39;98294.00;136971;1274;22326;-84
2023/07/12 10:04:50;;;;;;;10.10;5.90;;;;;;;32.72;35.75;98288.84;136989;1274;23583;-83
2023/07/12 10:07:52;;;;;;;28.70;7.50;;;;;;;33.05;35.17;98289.25;137050;1274;22530;-82
2023/07/12 10:10:53;;;;;;;9.00;5.50;;;;;;;33.36;35.01;98284.10;136912;1273;22097;-83
2023/07/12 10:13:56;;;;;;;7.20;5.60;;;;;;;33.73;34.59;98279.64;137339;1270;22243;-87
2023/07/12 10:16:57;;;;;;;9.20;6.10;;;;;;;34.07;34.71;98276.16;137221;1274;22236;-82
2023/07/12 10:19:59;;;;;;;10.60;5.60;;;;;;;34.23;34.09;98270.16;137030;1273;22248;-84
2023/07/12 10:23:01;;;;;;;7.90;6.30;;;;;;;34.03;34.44;98276.70;137297;1274;22619;-82
2023/07/12 10:26:14;;;;;;;7.70;6.70;;;;;;;33.74;34.72;98278.30;137287;1274;23101;-84
2023/07/12 10:29:16;;;;;;;7.70;6.50;;;;;;;33.64;35.49;98273.80;136863;1274;22830;-83
2023/07/12 10:32:21;;;;;;;11.10;7.10;;;;;;;33.31;35.50;98275.01;137227;1274;22732;-82
2023/07/12 10:35:22;;;;;;;7.80;7.10;;;;;;;32.68;36.22;98276.92;137358;1274;22355;-82
2023/07/12 10:38:25;;;;;;;11.30;7.40;;;;;;;32.06;37.48;98282.65;137066;1274;22256;-83
2023/07/12 10:41:26;;;;;;;12.90;7.70;;;;;;;31.22;34.77;98291.64;137464;1274;22429;-80
2023/07/12 10:44:27;;;;;;;13.60;7.90;;;;;;;30.19;37.03;98297.66;137450;1274;22281;-85
2023/07/12 10:47:29;;;;;;;263.20;23.60;;;;;;;29.47;38.26;98318.77;137224;1274;22802;-84
2023/07/12 10:50:30;;;;;;;161.20;27.00;;;;;;;28.58;43.54;98347.32;137129;1273;22516;-82
2023/07/12 10:53:31;;;;;;;28.80;10.30;;;;;;;27.52;50.75;98378.10;137436;1274;22323;-83
2023/07/12 10:56:33;;;;;;;48.30;12.00;;;;;;;26.50;56.42;98388.33;137033;1274;22251;-83
2023/07/12 10:59:34;;;;;;;16.40;11.50;;;;;;;25.69;62.03;98398.00;137486;1273;22337;-84
2023/07/12 11:02:35;;;;;;;25.30;13.30;;;;;;;24.73;66.50;98401.95;137348;1273;22271;-83
2023/07/12 11:05:36;;;;;;;16.30;13.60;;;;;;;24.44;68.77;98406.27;137482;1274;22325;-83
2023/07/12 11:08:37;;;;;;;252.00;175.30;;;;;;;24.12;71.07;98415.10;137435;1274;22337;-82
2023/07/12 11:11:39;;;;;;;19.90;15.60;;;;;;;24.00;73.73;98402.94;137470;1274;22102;-84
2023/07/12 11:14:42;;;;;;;24.00;17.20;;;;;;;23.60;74.82;98399.56;137494;1274;22247;-84
2023/07/12 11:17:44;;;;;;;30.10;25.90;;;;;;;23.20;77.62;98393.20;137505;1274;22211;-83
2023/07/12 11:20:46;;;;;;;36.70;32.90;;;;;;;23.35;78.96;98389.16;137503;1274;22742;-83
2023/07/12 11:23:49;;;;;;;21.50;19.10;;;;;;;23.48;78.90;98379.85;137521;1270;22239;-83
2023/07/12 11:26:50;;;;;;;28.90;22.40;;;;;;;23.26;79.23;98386.88;137522;1274;22641;-81
2023/07/12 11:29:51;;;;;;;29.50;26.40;;;;;;;23.35;80.46;98394.98;137449;1274;22234;-82
2023/07/12 11:32:55;;;;;;;24.10;20.00;;;;;;;23.46;80.95;98398.56;137454;1274;22259;-83
2023/07/12 11:35:57;;;;;;;23.70;21.20;;;;;;;23.48;81.07;98405.42;137286;1274;22179;-82
2023/07/12 11:38:58;;;;;;;14.90;13.10;;;;;;;23.49;82.29;98412.30;136878;1274;22526;-83
2023/07/12 11:42:00;;;;;;;27.80;20.80;;;;;;;23.43;80.81;98411.52;137333;1274;22181;-82
2023/07/12 11:45:01;;;;;;;20.20;14.00;;;;;;;23.37;83.10;98416.04;137491;1253;22680;-83
2023/07/12 11:48:02;;;;;;;22.70;18.50;;;;;;;23.50;83.35;98409.08;137491;1274;22409;-83
2023/07/12 11:51:04;;;;;;;22.40;17.30;;;;;;;23.66;82.12;98409.21;137499;1274;22683;-82
2023/07/12 11:54:05;;;;;;;19.20;15.40;;;;;;;23.48;82.39;98404.90;137463;1273;22767;-82
2023/07/12 11:57:06;;;;;;;19.40;16.10;;;;;;;23.56;82.21;98396.75;137437;1273;22339;-83
2023/07/12 12:00:07;;;;;;;19.70;15.10;;;;;;;23.58;82.19;98395.21;137509;1273;22374;-81
2023/07/12 12:03:08;;;;;;;17.40;15.50;;;;;;;23.60;82.59;98394.94;137492;1274;22233;-82
2023/07/12 12:06:10;;;;;;;14.50;13.10;;;;;;;23.59;83.23;98405.27;137405;1274;22325;-82
2023/07/12 12:09:11;;;;;;;19.80;14.50;;;;;;;23.38;83.99;98405.71;137436;1274;22344;-80
2023/07/12 12:12:12;;;;;;;20.10;13.30;;;;;;;23.28;86.55;98409.73;137455;1274;22701;-80
2023/07/12 12:15:13;;;;;;;14.90;13.40;;;;;;;23.21;85.97;98403.30;137229;1274;22425;-79
2023/07/12 12:18:15;;;;;;;17.00;13.10;;;;;;;23.37;86.96;98405.38;137491;1274;22307;-81
2023/07/12 12:21:16;;;;;;;15.00;12.80;;;;;;;23.75;86.81;98401.82;137444;1273;22307;-80
2023/07/12 12:24:17;;;;;;;19.70;12.90;;;;;;;24.45;86.18;98385.91;137411;1274;22200;-81
2023/07/12 12:27:18;;;;;;;17.70;13.80;;;;;;;24.96;79.69;98379.36;137387;1274;23045;-80
2023/07/12 12:30:19;;;;;;;12.00;9.90;;;;;;;25.48;79.00;98370.84;137368;1274;22184;-81
2023/07/12 12:33:20;;;;;;;14.10;11.40;;;;;;;25.84;75.10;98372.77;137328;1274;22230;-80
2023/07/12 12:36:24;;;;;;;15.30;11.30;;;;;;;26.11;73.34;98369.44;137321;1274;22206;-80
2023/07/12 12:39:25;;;;;;;;;;;;;;;26.02;70.37;98365.80;137347;1274;22875;-81
2023/07/12 12:42:26;;;;;;;12.40;9.80;;;;;;;26.29;70.21;98363.37;137336;1254;22089;-80
2023/07/12 12:45:27;;;;;;;11.30;9.90;;;;;;;26.72;69.00;98356.65;137404;1273;22245;-80
2023/07/12 12:48:29;;;;;;;10.60;9.50;;;;;;;27.11;68.40;98359.12;137362;1274;22241;-81
2023/07/12 12:51:30;;;;;;;13.80;10.20;;;;;;;27.13;64.69;98367.94;137386;1274;22949;-78
2023/07/12 12:54:31;;;;;;;18.60;13.40;;;;;;;27.13;66.23;98362.38;137371;1270;22233;-76
2023/07/12 12:57:33;;;;;;;35.20;26.70;;;;;;;27.55;67.19;98363.80;137401;1274;22360;-81
2023/07/12 13:00:34;;;;;;;11.80;9.80;;;;;;;27.92;66.37;98370.52;137486;1274;22247;-79
2023/07/12 13:03:36;;;;;;;12.40;10.10;;;;;;;28.36;64.44;98365.79;137403;1273;22770;-79
2023/07/12 13:06:37;;;;;;;17.00;10.80;;;;;;;28.48;63.46;98363.51;137452;1274;22282;-80
2023/07/12 13:09:38;;;;;;;11.60;9.80;;;;;;;28.46;63.27;98354.20;137430;1273;22777;-79
2023/07/12 13:12:40;;;;;;;12.10;9.00;;;;;;;28.47;64.23;98349.79;137406;1274;22258;-80
